Trussville, Alabama
Current Conditions -  °F | °C
As of 12:53 AM on Monday 24 Nov 2014 (Local Time) from KBHM Reporting Station
Overcast Overcast  
Wind Chill: 64°   Ceiling: 1900
Heat Index: 64°   Visibility: 10mi
Dew Point: 58°   Wind: 18mph
Humidity: 80%   Direction: 210°SSW
Pressure: 29.7"   Gusts: 30mph
Location:  33.62°N, 86.6°W
Report Text: KBHM 240653Z 21016G26KT 10SM BKN019 OVC025 18/14 A2970 RMK AO2 PK WND 20026/0645 SLP052 T01780144
Loading
Personal Weather Stations






























Interactive Weather Map New forecast layout! Learn more

10-Day Weather Forecast

Advertisements
Track Severe Weather on mobile